createdAt,value
2023-04-25T00:02:20.893Z,3.50
2023-04-25T00:04:50.683Z,3.80
2023-04-25T00:07:17.828Z,3.78
2023-04-25T00:09:45.613Z,3.65
2023-04-25T00:12:12.478Z,3.40
2023-04-25T00:14:39.824Z,3.63
2023-04-25T00:17:07.135Z,3.63
2023-04-25T00:19:35.892Z,3.15
2023-04-25T00:22:03.529Z,3.85
2023-04-25T00:24:30.854Z,3.70
2023-04-25T00:26:57.744Z,3.15
2023-04-25T00:29:24.629Z,3.83
2023-04-25T00:31:51.520Z,3.88
2023-04-25T00:34:18.422Z,3.28
2023-04-25T00:36:45.977Z,3.90
2023-04-25T00:39:13.185Z,3.60
2023-04-25T00:41:40.784Z,4.07
2023-04-25T00:44:11.214Z,3.22
2023-04-25T00:46:38.332Z,3.25
2023-04-25T00:49:05.281Z,3.42
2023-04-25T00:51:33.991Z,3.47
2023-04-25T00:54:01.318Z,3.78
2023-04-25T00:56:28.211Z,3.22
2023-04-25T00:58:57.705Z,3.55
2023-04-25T01:01:24.687Z,3.60
2023-04-25T01:03:52.154Z,3.95
2023-04-25T01:06:19.618Z,4.05
2023-04-25T01:08:46.670Z,4.07
2023-04-25T01:11:13.500Z,4.72
2023-04-25T01:13:40.592Z,4.13
2023-04-25T01:16:07.717Z,3.65
2023-04-25T01:18:34.914Z,3.80
2023-04-25T01:21:12.784Z,4.13
2023-04-25T01:23:41.224Z,4.78
2023-04-25T01:26:12.291Z,4.13
2023-04-25T01:28:42.388Z,3.97
2023-04-25T01:31:10.366Z,4.90
2023-04-25T01:33:37.698Z,4.57
2023-04-25T01:36:05.388Z,4.35
2023-04-25T01:38:32.907Z,4.32
2023-04-25T01:41:00.109Z,4.80
2023-04-25T01:43:27.600Z,4.10
2023-04-25T01:45:54.747Z,3.75
2023-04-25T01:48:21.722Z,4.65
2023-04-25T01:50:48.666Z,4.30
2023-04-25T01:53:16.045Z,4.55
2023-04-25T01:55:42.888Z,6.10
2023-04-25T01:58:10.699Z,4.55
2023-04-25T02:00:42.020Z,5.43
2023-04-25T02:03:09.847Z,4.28
2023-04-25T02:05:38.774Z,4.22
2023-04-25T02:08:08.185Z,5.03
2023-04-25T02:10:35.830Z,4.45
2023-04-25T02:13:03.512Z,5.57
2023-04-25T02:15:30.757Z,4.25
2023-04-25T02:17:59.136Z,4.15
2023-04-25T02:20:26.827Z,4.78
2023-04-25T02:22:53.856Z,4.75
2023-04-25T02:25:21.109Z,4.18
2023-04-25T02:27:48.816Z,5.85
2023-04-25T02:30:16.501Z,5.57
2023-04-25T02:32:43.602Z,4.80
2023-04-25T02:35:10.974Z,5.63
2023-04-25T02:37:39.665Z,5.22
2023-04-25T02:40:07.920Z,5.35
2023-04-25T02:42:35.461Z,5.70
2023-04-25T02:45:03.282Z,6.30
2023-04-25T02:47:31.000Z,4.75
2023-04-25T02:49:58.047Z,5.75
2023-04-25T02:52:25.945Z,5.80
2023-04-25T02:54:52.889Z,5.07
2023-04-25T02:57:19.782Z,5.75
2023-04-25T02:59:46.745Z,5.75
2023-04-25T03:02:13.604Z,6.18
2023-04-25T03:04:41.163Z,5.18
2023-04-25T03:07:08.348Z,5.32
2023-04-25T03:09:35.795Z,5.72
2023-04-25T03:12:02.658Z,6.57
2023-04-25T03:14:29.602Z,5.68
2023-04-25T03:16:56.731Z,5.70
2023-04-25T03:19:23.657Z,5.43
2023-04-25T03:21:50.774Z,5.30
2023-04-25T03:24:17.714Z,6.65
2023-04-25T03:26:44.627Z,5.80
2023-04-25T03:29:11.506Z,6.00
2023-04-25T03:31:38.414Z,5.45
2023-04-25T03:34:05.535Z,5.13
2023-04-25T03:36:33.695Z,5.75
2023-04-25T03:39:01.051Z,5.03
2023-04-25T03:41:28.830Z,5.28
2023-04-25T03:43:55.774Z,5.28
2023-04-25T03:46:22.751Z,5.65
2023-04-25T03:48:49.719Z,5.80
2023-04-25T03:51:16.841Z,6.43
2023-04-25T03:53:43.839Z,5.47
2023-04-25T03:56:10.759Z,5.47
2023-04-25T03:58:37.696Z,4.97
2023-04-25T04:01:08.386Z,4.70
2023-04-25T04:03:39.329Z,4.93
2023-04-25T04:06:07.604Z,6.28
2023-04-25T04:08:34.821Z,5.15
2023-04-25T04:11:01.699Z,4.85
2023-04-25T04:13:29.778Z,5.18
2023-04-25T04:15:57.094Z,4.68
2023-04-25T04:18:24.033Z,5.18
2023-04-25T04:20:50.974Z,3.78
2023-04-25T04:23:17.898Z,4.32
2023-04-25T04:25:44.940Z,4.05
2023-04-25T04:28:12.173Z,3.42
2023-04-25T04:30:40.262Z,3.65
2023-04-25T04:33:08.437Z,4.13
2023-04-25T04:35:35.586Z,3.95
2023-04-25T04:38:02.458Z,3.80
2023-04-25T04:40:29.427Z,3.42
2023-04-25T04:42:57.566Z,4.47
2023-04-25T04:45:24.996Z,3.85
2023-04-25T04:47:52.141Z,4.00
2023-04-25T04:50:19.317Z,3.38
2023-04-25T04:52:46.244Z,4.00
2023-04-25T04:55:13.043Z,3.50
2023-04-25T04:57:40.546Z,4.03
2023-04-25T05:00:11.828Z,3.50
2023-04-25T05:02:39.958Z,4.32
2023-04-25T05:05:07.873Z,3.95
2023-04-25T05:07:35.450Z,4.10
2023-04-25T05:10:02.428Z,4.30
2023-04-25T05:12:29.385Z,4.20
2023-04-25T05:14:56.197Z,4.60
2023-04-25T05:17:23.133Z,4.57
2023-04-25T05:19:49.968Z,4.03
2023-04-25T05:22:17.273Z,3.95
2023-04-25T05:24:44.296Z,3.75
2023-04-25T05:27:11.132Z,4.97
2023-04-25T05:29:38.423Z,4.35
2023-04-25T05:32:06.604Z,4.22
2023-04-25T05:34:33.477Z,3.85
2023-04-25T05:37:00.459Z,4.32
2023-04-25T05:39:27.323Z,4.40
2023-04-25T05:41:54.173Z,4.70
2023-04-25T05:44:21.126Z,4.53
2023-04-25T05:46:48.538Z,4.88
2023-04-25T05:49:16.456Z,4.10
2023-04-25T05:51:45.024Z,5.22
2023-04-25T05:54:12.067Z,4.70
2023-04-25T05:56:38.868Z,4.60
2023-04-25T05:59:06.041Z,3.92
2023-04-25T06:01:33.030Z,3.45
2023-04-25T06:04:00.008Z,3.40
2023-04-25T06:06:27.906Z,3.67
2023-04-25T06:08:55.709Z,3.60
2023-04-25T06:11:22.556Z,4.47
2023-04-25T06:13:49.729Z,3.53
2023-04-25T06:16:16.802Z,3.28
2023-04-25T06:18:43.969Z,2.70
2023-04-25T06:21:10.897Z,3.15
2023-04-25T06:23:37.760Z,2.75
2023-04-25T06:26:04.819Z,3.10
2023-04-25T06:28:31.763Z,2.80
2023-04-25T06:30:58.779Z,3.08
2023-04-25T06:33:25.928Z,2.80
2023-04-25T06:35:52.773Z,2.72
2023-04-25T06:38:19.821Z,3.65
2023-04-25T06:40:46.623Z,2.95
2023-04-25T06:43:13.515Z,4.30
2023-04-25T06:45:40.544Z,3.20
2023-04-25T06:48:07.594Z,2.72
2023-04-25T06:50:35.701Z,2.53
2023-04-25T06:53:02.929Z,2.90
2023-04-25T06:55:29.767Z,2.97
2023-04-25T06:57:56.852Z,2.70
2023-04-25T07:00:23.898Z,2.65
2023-04-25T07:02:51.352Z,3.10
2023-04-25T07:05:19.386Z,2.70
2023-04-25T07:07:46.570Z,2.30
2023-04-25T07:10:13.442Z,2.70
2023-04-25T07:12:40.372Z,2.97
2023-04-25T07:15:09.121Z,2.33
2023-04-25T07:17:36.086Z,2.50
2023-04-25T07:20:04.615Z,2.50
2023-04-25T07:22:31.472Z,3.47
2023-04-25T07:24:58.352Z,2.45
2023-04-25T07:27:25.152Z,2.80
2023-04-25T07:29:52.196Z,2.55
2023-04-25T07:32:19.300Z,2.45
2023-04-25T07:34:46.288Z,3.33
2023-04-25T07:37:13.211Z,3.58
2023-04-25T07:39:40.350Z,2.63
2023-04-25T07:42:09.207Z,2.60
2023-04-25T07:44:39.995Z,3.08
2023-04-25T07:47:10.744Z,3.17
2023-04-25T07:49:38.328Z,3.65
2023-04-25T07:52:07.248Z,2.92
2023-04-25T07:54:34.111Z,2.33
2023-04-25T07:57:01.046Z,2.40
2023-04-25T07:59:30.025Z,2.33
2023-04-25T08:01:58.633Z,2.30
2023-04-25T08:04:26.871Z,1.55
2023-04-25T08:06:54.889Z,1.98
2023-04-25T08:09:22.465Z,2.65
2023-04-25T08:11:49.829Z,1.98
2023-04-25T08:14:16.725Z,1.73
2023-04-25T08:16:43.911Z,1.50
2023-04-25T08:19:12.122Z,1.55
2023-04-25T08:21:39.090Z,1.25
2023-04-25T08:24:06.130Z,1.65
2023-04-25T08:26:33.925Z,1.83
2023-04-25T08:29:01.197Z,1.70
2023-04-25T08:31:28.088Z,2.00
2023-04-25T08:33:55.376Z,2.20
2023-04-25T08:36:37.725Z,1.77
2023-04-25T08:39:06.100Z,1.65
2023-04-25T08:41:33.210Z,1.70
2023-04-25T08:44:02.146Z,1.55
2023-04-25T08:46:32.196Z,1.50
2023-04-25T08:49:02.296Z,1.33
2023-04-25T08:51:33.049Z,1.58
2023-04-25T08:56:46.222Z,1.80
2023-04-25T08:59:13.433Z,2.50
2023-04-25T09:01:40.953Z,1.65
2023-04-25T09:04:08.258Z,1.77
2023-04-25T09:06:36.113Z,2.53
2023-04-25T09:09:07.554Z,1.85
2023-04-25T09:11:36.928Z,1.45
2023-04-25T09:14:22.040Z,1.30
2023-04-25T09:16:57.981Z,1.77
2023-04-25T09:19:39.831Z,1.80
2023-04-25T09:22:08.524Z,1.48
2023-04-25T09:24:49.944Z,1.77
2023-04-25T09:27:24.105Z,1.67
2023-04-25T09:29:59.236Z,3.17
2023-04-25T09:32:26.939Z,1.40
2023-04-25T09:34:56.259Z,1.35
2023-04-25T09:37:28.792Z,0.82
2023-04-25T09:39:57.858Z,1.30
2023-04-25T09:42:26.351Z,1.15
2023-04-25T09:44:54.702Z,1.63
2023-04-25T09:47:24.543Z,1.05
2023-04-25T09:49:52.532Z,1.52
2023-04-25T09:52:24.579Z,1.10
2023-04-25T09:54:53.001Z,1.10
2023-04-25T09:57:22.551Z,1.23
2023-04-25T09:59:50.887Z,0.90
2023-04-25T10:05:08.942Z,1.85
2023-04-25T10:07:39.454Z,1.30
2023-04-25T10:10:07.433Z,1.30
2023-04-25T10:12:35.386Z,1.55
2023-04-25T10:15:04.130Z,1.35
2023-04-25T10:17:32.817Z,1.45
2023-04-25T10:20:04.079Z,1.30
2023-04-25T10:22:37.842Z,1.40
2023-04-25T10:25:05.987Z,1.65
2023-04-25T10:27:33.481Z,1.30
2023-04-25T10:30:17.069Z,1.48
2023-04-25T10:32:44.492Z,1.20
2023-04-25T10:35:34.588Z,1.10
2023-04-25T10:38:02.312Z,1.20
2023-04-25T10:40:29.413Z,1.10
2023-04-25T10:42:57.273Z,1.25
2023-04-25T10:45:24.874Z,1.10
2023-04-25T10:47:52.235Z,1.42
2023-04-25T10:50:21.345Z,1.10
2023-04-25T10:52:48.347Z,1.17
2023-04-25T10:55:15.624Z,1.80
2023-04-25T10:57:45.287Z,1.27
2023-04-25T11:00:17.967Z,1.13
2023-04-25T11:05:50.919Z,0.93
2023-04-25T11:08:49.232Z,1.50
2023-04-25T11:11:20.785Z,0.93
2023-04-25T11:13:52.186Z,1.00
2023-04-25T11:14:37.755Z,1.55
2023-04-25T11:16:27.652Z,1.17
2023-04-25T11:21:29.087Z,1.10
2023-04-25T11:23:58.152Z,1.10
2023-04-25T11:26:27.287Z,0.85
2023-04-25T11:29:01.421Z,0.70
2023-04-25T11:31:28.640Z,0.90
2023-04-25T11:33:58.475Z,0.90
2023-04-25T11:36:27.044Z,0.90
2023-04-25T11:38:55.258Z,0.90
2023-04-25T11:41:23.536Z,1.15
2023-04-25T11:43:53.115Z,0.95
2023-04-25T11:46:21.594Z,1.17
2023-04-25T11:48:49.505Z,0.80
2023-04-25T11:51:20.901Z,0.90
2023-04-25T11:53:48.065Z,1.02
2023-04-25T11:56:16.295Z,1.10
2023-04-25T11:59:15.726Z,1.05
2023-04-25T12:01:50.799Z,1.08
2023-04-25T12:04:20.593Z,0.93
2023-04-25T12:06:49.367Z,1.10
2023-04-25T12:09:34.443Z,1.60
2023-04-25T12:12:05.260Z,0.88
2023-04-25T12:14:36.957Z,1.02
2023-04-25T12:17:07.579Z,1.10
2023-04-25T12:19:41.885Z,1.40
2023-04-25T12:22:23.882Z,1.20
2023-04-25T12:24:51.195Z,0.95
2023-04-25T12:27:20.312Z,1.13
2023-04-25T12:29:55.790Z,0.82
2023-04-25T12:32:23.592Z,1.08
2023-04-25T12:34:51.023Z,0.80
2023-04-25T12:37:19.877Z,1.35
2023-04-25T12:39:47.331Z,0.90
2023-04-25T12:42:14.603Z,0.80
2023-04-25T12:44:42.565Z,1.65
2023-04-25T12:47:09.972Z,1.30
2023-04-25T12:49:36.974Z,1.10
2023-04-25T12:52:04.320Z,1.17
2023-04-25T12:54:32.303Z,1.50
2023-04-25T12:56:59.521Z,1.33
2023-04-25T12:59:26.722Z,1.50
2023-04-25T13:01:54.189Z,1.52
2023-04-25T13:04:22.423Z,1.20
2023-04-25T13:06:49.894Z,1.60
2023-04-25T13:09:17.036Z,0.90
2023-04-25T13:11:44.642Z,1.48
2023-04-25T13:14:11.855Z,1.30
2023-04-25T13:16:39.174Z,1.08
2023-04-25T13:19:08.879Z,1.10
2023-04-25T13:21:36.293Z,1.08
2023-04-25T13:24:03.556Z,1.80
2023-04-25T13:26:30.782Z,1.13
2023-04-25T13:28:58.451Z,0.90
2023-04-25T13:31:26.071Z,1.25
2023-04-25T13:33:53.587Z,1.85
2023-04-25T13:36:23.160Z,1.00
2023-04-25T13:38:50.926Z,1.67
2023-04-25T13:41:20.056Z,1.10
2023-04-25T13:43:49.313Z,1.48
2023-04-25T13:46:35.344Z,1.17
2023-04-25T13:49:12.325Z,1.35
2023-04-25T13:51:41.190Z,1.15
2023-04-25T13:54:08.825Z,1.10
2023-04-25T13:56:36.413Z,1.02
2023-04-25T13:59:04.066Z,1.52
2023-04-25T14:01:35.513Z,1.92
2023-04-25T14:04:05.152Z,1.23
2023-04-25T14:06:33.291Z,1.42
2023-04-25T14:09:02.458Z,1.13
2023-04-25T14:11:29.705Z,1.17
2023-04-25T14:13:56.883Z,1.73
2023-04-25T14:16:24.753Z,1.20
2023-04-25T14:18:52.112Z,1.00
2023-04-25T14:21:19.277Z,1.17
2023-04-25T14:23:47.942Z,1.20
2023-04-25T14:26:18.463Z,1.50
2023-04-25T14:28:48.693Z,1.60
2023-04-25T14:31:15.851Z,1.55
2023-04-25T14:33:44.788Z,0.98
2023-04-25T14:36:12.237Z,0.90
2023-04-25T14:38:39.507Z,1.75
2023-04-25T14:41:09.429Z,1.70
2023-04-25T14:43:37.670Z,1.52
2023-04-25T14:46:05.271Z,1.30
2023-04-25T14:48:32.459Z,1.77
2023-04-25T14:51:03.162Z,1.50
2023-04-25T14:53:30.719Z,1.63
2023-04-25T14:55:57.769Z,1.58
2023-04-25T14:58:25.025Z,1.60
2023-04-25T15:00:52.394Z,1.08
2023-04-25T15:03:20.154Z,1.70
2023-04-25T15:05:47.419Z,1.60
2023-04-25T15:08:14.768Z,1.52
2023-04-25T15:10:41.830Z,1.52
2023-04-25T15:13:09.037Z,1.42
2023-04-25T15:15:36.079Z,1.60
2023-04-25T15:18:04.381Z,1.20
2023-04-25T15:20:31.884Z,1.02
2023-04-25T15:22:59.674Z,1.05
2023-04-25T15:25:27.470Z,1.10
2023-04-25T15:27:56.106Z,1.40
2023-04-25T15:30:23.464Z,1.10
2023-04-25T15:32:50.958Z,1.15
2023-04-25T15:35:17.981Z,1.38
2023-04-25T15:37:45.197Z,0.95
2023-04-25T15:40:16.542Z,1.00
2023-04-25T15:42:49.272Z,1.88
2023-04-25T15:45:18.130Z,1.52
2023-04-25T15:47:46.134Z,1.52
2023-04-25T15:50:16.262Z,1.63
2023-04-25T15:52:44.036Z,1.73
2023-04-25T15:55:14.561Z,1.10
2023-04-25T15:57:42.664Z,1.40
2023-04-25T16:00:13.724Z,1.80
2023-04-25T16:02:42.054Z,1.33
2023-04-25T16:05:11.479Z,1.10
2023-04-25T16:07:40.255Z,1.38
2023-04-25T16:10:08.031Z,0.88
2023-04-25T16:12:35.804Z,1.67
2023-04-25T16:15:03.477Z,1.70
2023-04-25T16:17:30.891Z,1.33
2023-04-25T16:20:02.698Z,1.33
2023-04-25T16:22:30.008Z,1.38
2023-04-25T16:24:57.011Z,1.95
2023-04-25T16:27:24.169Z,1.05
2023-04-25T16:29:51.829Z,1.50
2023-04-25T16:32:19.349Z,1.60
2023-04-25T16:34:49.167Z,1.85
2023-04-25T16:37:16.361Z,1.50
2023-04-25T16:39:43.667Z,1.88
2023-04-25T16:42:11.088Z,1.30
2023-04-25T16:44:38.665Z,1.50
2023-04-25T16:47:06.431Z,2.50
2023-04-25T16:49:34.239Z,1.67
2023-04-25T16:52:01.321Z,1.88
2023-04-25T16:54:28.548Z,1.55
2023-04-25T16:56:55.964Z,1.95
2023-04-25T16:59:23.054Z,1.70
2023-04-25T17:01:50.580Z,1.83
2023-04-25T17:04:18.133Z,2.65
2023-04-25T17:06:45.406Z,1.63
2023-04-25T17:09:12.445Z,1.77
2023-04-25T17:11:39.696Z,1.77
2023-04-25T17:14:07.178Z,1.67
2023-04-25T17:16:36.746Z,2.08
2023-04-25T17:19:07.855Z,1.67
2023-04-25T17:21:38.064Z,1.80
2023-04-25T17:24:09.966Z,1.50
2023-04-25T17:26:37.342Z,1.60
2023-04-25T17:29:06.199Z,1.55
2023-04-25T17:31:33.765Z,1.38
2023-04-25T17:34:00.906Z,1.55
2023-04-25T17:36:28.306Z,1.05
2023-04-25T17:38:55.440Z,1.52
2023-04-25T17:41:22.642Z,1.08
2023-04-25T17:43:50.079Z,1.70
2023-04-25T17:46:17.346Z,1.20
2023-04-25T17:48:44.545Z,1.63
2023-04-25T17:51:11.688Z,1.17
2023-04-25T17:53:38.818Z,1.15
2023-04-25T17:56:15.800Z,1.50
2023-04-25T17:58:53.265Z,1.48
2023-04-25T18:01:20.923Z,1.27
2023-04-25T18:03:50.367Z,1.23
2023-04-25T18:06:18.531Z,1.13
2023-04-25T18:08:47.676Z,1.30
2023-04-25T18:11:15.104Z,1.08
2023-04-25T18:13:43.005Z,1.23
2023-04-25T18:16:10.388Z,1.30
2023-04-25T18:18:38.321Z,1.15
2023-04-25T18:21:07.962Z,1.55
2023-04-25T18:23:35.874Z,1.95
2023-04-25T18:26:04.417Z,1.25
2023-04-25T18:28:34.239Z,1.63
2023-04-25T18:31:01.591Z,1.60
2023-04-25T18:33:28.833Z,1.90
2023-04-25T18:35:59.129Z,1.35
2023-04-25T18:41:13.082Z,1.42
2023-04-25T18:43:46.914Z,1.23
2023-04-25T18:46:14.490Z,1.27
2023-04-25T18:48:41.763Z,1.48
2023-04-25T18:51:09.227Z,1.63
2023-04-25T18:53:37.539Z,1.50
2023-04-25T18:56:05.085Z,1.02
2023-04-25T18:58:32.733Z,1.25
2023-04-25T19:01:04.301Z,1.63
2023-04-25T19:03:31.845Z,1.27
2023-04-25T19:06:02.446Z,1.90
2023-04-25T19:08:29.511Z,1.75
2023-04-25T19:10:57.635Z,1.63
2023-04-25T19:13:25.433Z,1.85
2023-04-25T19:15:52.538Z,2.03
2023-04-25T19:18:19.650Z,2.35
2023-04-25T19:20:46.915Z,1.98
2023-04-25T19:23:14.149Z,1.80
2023-04-25T19:25:41.622Z,1.70
2023-04-25T19:28:12.039Z,1.90
2023-04-25T19:30:39.415Z,1.50
2023-04-25T19:33:06.453Z,1.75
2023-04-25T19:35:33.761Z,1.80
2023-04-25T19:38:01.280Z,1.52
2023-04-25T19:40:31.153Z,1.85
2023-04-25T19:42:58.670Z,1.80
2023-04-25T19:45:25.971Z,2.40
2023-04-25T19:47:54.090Z,1.80
2023-04-25T19:50:21.846Z,2.33
2023-04-25T19:52:49.113Z,2.00
2023-04-25T19:55:16.235Z,1.90
2023-04-25T19:57:43.284Z,1.75
2023-04-25T20:02:52.971Z,1.90
2023-04-25T20:05:20.146Z,1.75
2023-04-25T20:07:47.344Z,1.90
2023-04-25T20:10:15.999Z,2.20
2023-04-25T20:12:44.427Z,1.95
2023-04-25T20:15:11.945Z,1.65
2023-04-25T20:17:42.742Z,1.85
2023-04-25T20:20:11.552Z,1.70
2023-04-25T20:22:40.738Z,1.60
2023-04-25T20:25:09.971Z,1.77
2023-04-25T20:27:40.161Z,1.80
2023-04-25T20:30:08.445Z,2.00
2023-04-25T20:32:37.886Z,1.63
2023-04-25T20:35:07.958Z,1.95
2023-04-25T20:37:35.889Z,1.90
2023-04-25T20:40:05.695Z,1.60
2023-04-25T20:42:33.063Z,1.67
2023-04-25T20:45:01.260Z,1.75
2023-04-25T20:47:29.543Z,1.98
2023-04-25T20:49:57.803Z,2.00
2023-04-25T20:52:25.174Z,2.33
2023-04-25T20:54:54.272Z,2.42
2023-04-25T20:57:21.665Z,2.58
2023-04-25T20:59:49.619Z,2.70
2023-04-25T21:02:18.168Z,2.67
2023-04-25T21:04:45.908Z,2.55
2023-04-25T21:07:14.106Z,2.45
2023-04-25T21:09:42.782Z,2.80
2023-04-25T21:12:10.335Z,2.67
2023-04-25T21:14:37.543Z,2.95
2023-04-25T21:17:07.828Z,2.60
2023-04-25T21:19:35.010Z,3.25
2023-04-25T21:22:03.826Z,3.15
2023-04-25T21:24:33.534Z,2.70
2023-04-25T21:27:01.724Z,2.90
2023-04-25T21:29:29.078Z,3.10
2023-04-25T21:31:58.883Z,2.58
2023-04-25T21:34:26.926Z,2.67
2023-04-25T21:36:54.242Z,3.05
2023-04-25T21:39:21.338Z,3.28
2023-04-25T21:41:48.538Z,3.03
2023-04-25T21:44:15.999Z,3.35
2023-04-25T21:46:43.282Z,3.60
2023-04-25T21:49:10.501Z,2.78
2023-04-25T21:51:37.760Z,3.17
2023-04-25T21:54:05.919Z,3.63
2023-04-25T21:56:33.359Z,3.08
2023-04-25T21:59:00.895Z,3.40
2023-04-25T22:01:28.833Z,3.53
2023-04-25T22:03:56.244Z,3.13
2023-04-25T22:06:23.865Z,3.70
2023-04-25T22:08:51.568Z,2.92
2023-04-25T22:11:19.172Z,3.50
2023-04-25T22:13:47.387Z,3.30
2023-04-25T22:16:14.963Z,3.08
2023-04-25T22:18:42.459Z,3.25
2023-04-25T22:21:10.370Z,3.38
2023-04-25T22:23:37.552Z,3.55
2023-04-25T22:26:05.216Z,3.95
2023-04-25T22:28:33.287Z,3.80
2023-04-25T22:31:00.587Z,3.50
2023-04-25T22:33:27.583Z,3.60
2023-04-25T22:35:54.598Z,4.18
2023-04-25T22:38:22.206Z,3.28
2023-04-25T22:40:49.471Z,3.78
2023-04-25T22:43:16.783Z,3.78
2023-04-25T22:45:44.148Z,3.95
2023-04-25T22:48:11.556Z,3.70
2023-04-25T22:50:41.111Z,4.10
2023-04-25T22:53:10.509Z,4.00
2023-04-25T22:55:37.672Z,4.53
2023-04-25T22:58:05.187Z,4.05
2023-04-25T23:00:34.494Z,4.38
2023-04-25T23:03:04.312Z,4.15
2023-04-25T23:05:33.246Z,5.63
2023-04-25T23:08:00.662Z,3.97
2023-04-25T23:10:28.940Z,4.10
2023-04-25T23:12:58.335Z,4.65
2023-04-25T23:15:27.856Z,4.40
2023-04-25T23:17:55.064Z,4.75
2023-04-25T23:20:22.325Z,4.13
2023-04-25T23:22:50.054Z,4.57
2023-04-25T23:25:18.369Z,5.15
2023-04-25T23:27:45.750Z,4.65
2023-04-25T23:30:13.713Z,4.70
2023-04-25T23:32:41.225Z,4.20
2023-04-25T23:35:09.602Z,4.38
2023-04-25T23:37:37.771Z,4.60
2023-04-25T23:40:08.695Z,5.22
2023-04-25T23:42:37.464Z,4.30
2023-04-25T23:45:06.386Z,4.47
2023-04-25T23:47:34.429Z,4.32
2023-04-25T23:50:02.452Z,4.50
2023-04-25T23:52:30.020Z,4.43
2023-04-25T23:54:57.331Z,4.78
2023-04-25T23:57:24.488Z,4.78
2023-04-25T23:59:52.082Z,4.95
